Airport View

Enter AWOS ICAO identifier for current METAR.

ex. KFNL

KABE 191926Z 05009KT 8SM BKN014 OVC020 24/21 A2978

19 Jun 2019 19:57

Phone: 610-266-3579

Other Area AWOS: KXLL - KUKT - KCKZ - K22N

TAF KABE 191721Z 1918/2018 12005KT P6SM VCSH OVC025 TEMPO 1919/1922 4SM SHRA OVC020 FM200600 VRB03KT 1SM BR BKN004 FM201200 VRB03KT 5SM BR OVC008 FM201500 VRB04KT P6SM OVC015